| time (UTC) | temp F | wind direction | speed MPH | gust MPH | rain 1hr in | rain 24hr in | rain mn in | humidity % | barometer mb |
| 20260506072759 | 54 | 272 | 2.0 | 3.0 | 0.00 | 0.00 | 0.11 | 54 | 1004.1 |
| 20260506071259 | 54 | 296 | 2.0 | 3.0 | 0.00 | 0.00 | 0.11 | 54 | 1004.1 |
| 20260506061259 | 54 | 272 | 2.0 | 2.0 | 0.00 | 0.00 | 0.11 | 54 | 1003.4 |
| 20260506051259 | 55 | 283 | 0.0 | 2.0 | 0.00 | 0.00 | 0.11 | 54 | 1003.4 |
| 20260506044259 | 55 | 291 | 1.0 | 3.0 | 0.00 | 0.00 | 0.11 | 54 | 1003.0 |
| 20260506042759 | 55 | 284 | 1.0 | 2.0 | 0.00 | 0.00 | 0.11 | 54 | 1003.0 |
| 20260506041259 | 55 | 262 | 2.0 | 5.0 | 0.00 | 0.00 | 0.11 | 54 | 1002.7 |
| 20260506035759 | 55 | 258 | 2.0 | 5.0 | 0.00 | 0.00 | 0.11 | 54 | 1002.4 |
| 20260506034259 | 55 | 288 | 1.0 | 2.0 | 0.00 | 0.00 | 0.11 | 54 | 1002.4 |
| 20260506032759 | 55 | 284 | 1.0 | 5.0 | 0.00 | 0.00 | 0.11 | 53 | 1002.0 |
| 20260506031259 | 55 | 244 | 2.0 | 2.0 | 0.00 | 0.00 | 0.11 | 54 | 1002.4 |
| 20260506025759 | 55 | 262 | 3.0 | 5.0 | 0.00 | 0.00 | 0.11 | 54 | 1002.0 |
| 20260506024259 | 55 | 269 | 3.0 | 5.0 | 0.00 | 0.00 | 0.11 | 54 | 1001.7 |
| 20260506022759 | 55 | 251 | 2.0 | 6.0 | 0.00 | 0.00 | 0.11 | 54 | 1001.7 |
| 20260506021259 | 56 | 268 | 4.0 | 7.0 | 0.00 | 0.00 | 0.11 | 54 | 1001.4 |
| 20260506015759 | 56 | 274 | 4.0 | 7.0 | 0.00 | 0.00 | 0.11 | 52 | 1002.0 |
| 20260506014259 | 57 | 265 | 3.0 | 8.0 | 0.00 | 0.00 | 0.11 | 54 | 1001.7 |
| 20260506012759 | 59 | 246 | 2.0 | 9.0 | 0.00 | 0.00 | 0.11 | 53 | 1001.7 |
| 20260506011259 | 61 | 254 | 4.0 | 8.0 | 0.00 | 0.00 | 0.11 | 52 | 1001.7 |
| 20260506005759 | 62 | 269 | 3.0 | 7.0 | 0.00 | 0.00 | 0.11 | 52 | 1001.7 |
| 20260506004259 | 60 | 273 | 1.0 | 6.0 | 0.00 | 0.00 | 0.11 | 53 | 1001.4 |
| 20260506002759 | 60 | 175 | 4.0 | 6.0 | 0.00 | 0.00 | 0.11 | 53 | 1001.4 |
| 20260506001259 | 59 | 286 | 8.0 | 13.0 | 0.00 | 0.00 | 0.11 | 51 | 1001.4 |
| 20260505235759 | 58 | 331 | 2.0 | 5.0 | 0.00 | 0.00 | 0.11 | 52 | 1001.4 |
| 20260505234259 | 59 | 259 | 3.0 | 3.0 | 0.00 | 0.00 | 0.11 | 53 | 1001.4 |
| 20260505232759 | 59 | 222 | 2.0 | 6.0 | 0.00 | 0.00 | 0.11 | 51 | 1001.4 |
| 20260505231259 | 60 | 261 | 1.0 | 7.0 | 0.00 | 0.00 | 0.11 | 52 | 1001.7 |
| 20260505225759 | 61 | 242 | 3.0 | 9.0 | 0.00 | 0.00 | 0.11 | 52 | 1001.4 |
| 20260505224259 | 61 | 262 | 3.0 | 10.0 | 0.00 | 0.00 | 0.11 | 51 | 1001.4 |
| 20260505222759 | 61 | 247 | 4.0 | 6.0 | 0.00 | 0.00 | 0.11 | 50 | 1001.4 |
| 20260505221259 | 61 | 249 | 5.0 | 11.0 | 0.00 | 0.00 | 0.11 | 53 | 1001.4 |
| 20260505215759 | 61 | 268 | 6.0 | 9.0 | 0.00 | 0.00 | 0.11 | 53 | 1001.4 |
| 20260505214259 | 60 | 253 | 4.0 | 8.0 | 0.00 | 0.00 | 0.11 | 54 | 1001.4 |
| 20260505212759 | 60 | 181 | 1.0 | 3.0 | 0.00 | 0.00 | 0.11 | 53 | 1001.7 |
| 20260505211259 | 59 | 279 | 4.0 | 5.0 | 0.00 | 0.00 | 0.11 | 53 | 1002.0 |
| 20260505205759 | 60 | 278 | 4.0 | 11.0 | 0.00 | 0.00 | 0.11 | 54 | 1001.4 |
| 20260505204259 | 61 | 259 | 7.0 | 10.0 | 0.00 | 0.00 | 0.11 | 54 | 1001.7 |
| 20260505202759 | 60 | 310 | 4.0 | 7.0 | 0.00 | 0.00 | 0.11 | 54 | 1001.7 |
| 20260505201259 | 59 | 297 | 3.0 | 9.0 | 0.00 | 0.00 | 0.11 | 54 | 1001.7 |
| 20260505195759 | 59 | 298 | 6.0 | 9.0 | 0.00 | 0.00 | 0.11 | 53 | 1001.7 |
| 20260505194259 | 58 | 305 | 5.0 | 9.0 | 0.00 | 0.00 | 0.11 | 52 | 1001.7 |
| 20260505192759 | 58 | 284 | 7.0 | 8.0 | 0.00 | 0.00 | 0.11 | 52 | 1002.0 |
| 20260505191259 | 56 | 245 | 4.0 | 9.0 | 0.00 | 0.00 | 0.11 | 53 | 1002.0 |
| 20260505185759 | 56 | 260 | 5.0 | 8.0 | 0.00 | 0.00 | 0.11 | 53 | 1001.7 |
| 20260505184259 | 56 | 258 | 4.0 | 9.0 | 0.00 | 0.00 | 0.11 | 54 | 1002.0 |
| 20260505182759 | 56 | 325 | 5.0 | 7.0 | 0.00 | 0.00 | 0.11 | 52 | 1001.7 |
| 20260505181259 | 55 | 282 | 3.0 | 8.0 | 0.00 | 0.00 | 0.11 | 53 | 1001.4 |
| 20260505175759 | 55 | 289 | 3.0 | 7.0 | 0.00 | 0.00 | 0.11 | 53 | 1001.4 |
| 20260505174259 | 54 | 290 | 5.0 | 7.0 | 0.00 | 0.00 | 0.11 | 52 | 1001.4 |
| 20260505172759 | 54 | 257 | 3.0 | 6.0 | 0.00 | 0.00 | 0.11 | 51 | 1001.4 |
| 20260505171259 | 54 | 290 | 4.0 | 7.0 | 0.00 | 0.00 | 0.11 | 52 | 1001.4 |
| 20260505165759 | 54 | 308 | 3.0 | 6.0 | 0.00 | 0.00 | 0.11 | 53 | 1001.0 |
| 20260505164259 | 54 | 283 | 4.0 | 7.0 | 0.02 | 0.00 | 0.11 | 52 | 1001.4 |
| 20260505162759 | 53 | 259 | 2.0 | 5.0 | 0.02 | 0.00 | 0.11 | 52 | 1001.4 |
| 20260505161259 | 52 | 260 | 1.0 | 6.0 | 0.02 | 0.00 | 0.11 | 52 | 1001.0 |
| 20260505152759 | 52 | 252 | 1.0 | 6.0 | 0.00 | 0.00 | 0.09 | 51 | 1000.7 |
| 20260505151259 | 52 | 271 | 2.0 | 3.0 | 0.00 | 0.00 | 0.09 | 50 | 1000.7 |
| 20260505124259 | 50 | 291 | 0.0 | 2.0 | 0.00 | 0.00 | 0.09 | 48 | 999.7 |
| 20260505122759 | 49 | 288 | 2.0 | 3.0 | 0.00 | 0.00 | 0.09 | 48 | 1000.0 |
| 20260505121259 | 49 | 301 | 1.0 | 3.0 | 0.00 | 0.00 | 0.09 | 49 | 999.7 |
| 20260505115759 | 49 | 274 | 3.0 | 3.0 | 0.00 | 0.00 | 0.09 | 48 | 1000.0 |
| 20260505114259 | 49 | 254 | 0.0 | 1.0 | 0.00 | 0.00 | 0.09 | 48 | 1000.0 |
| 20260505112759 | 50 | 260 | 0.0 | 0.0 | 0.00 | 0.00 | 0.09 | 48 | 1000.3 |
| 20260505111259 | 50 | 256 | 2.0 | 2.0 | 0.00 | 0.00 | 0.09 | 48 | 1000.3 |
| 20260505101259 | 50 | 275 | 2.0 | 3.0 | 0.01 | 0.00 | 0.09 | 49 | 1000.0 |
| 20260505095759 | 50 | 245 | 2.0 | 5.0 | 0.02 | 0.00 | 0.09 | 49 | 1000.3 |
| 20260505094259 | 50 | 259 | 1.0 | 2.0 | 0.03 | 0.00 | 0.09 | 49 | 1000.0 |
| 20260505092759 | 50 | 264 | 0.0 | 1.0 | 0.03 | 0.00 | 0.08 | 49 | 1000.7 |
| 20260505091259 | 50 | 274 | 0.0 | 0.0 | 0.04 | 0.00 | 0.08 | 49 | 1000.7 |
| 20260505085759 | 50 | 267 | 0.0 | 1.0 | 0.05 | 0.00 | 0.07 | 49 | 1000.7 |
| 20260505084259 | 49 | 267 | 0.0 | 0.0 | 0.05 | 0.00 | 0.06 | 49 | 1000.7 |
| 20260505082759 | 49 | 266 | 0.0 | 0.0 | 0.02 | 0.00 | 0.05 | 49 | 1000.7 |
| 20260505081259 | 50 | 266 | 0.0 | 0.0 | 0.02 | 0.00 | 0.04 | 49 | 1001.0 |
| 20260505075759 | 50 | 267 | 0.0 | 1.0 | 0.00 | 0.00 | 0.02 | 49 | 1001.0 |